Gerd Maersk — OYGM2 — position and weather

sailwx.info

Track history (hours):
 
Tides and Currents Weather Stations Pressure Air Temp Water Temp Dewpoint Dewpoint Depression Visibility Wind Speed Wind Dir Waves Ship Positions

Gerd Maersk

Last reported at 2016-Jul-01 09:33 UTC. Time now 2016-Jul-01 10:01 UTC.
Position N 32°49' E 035°01'.

Length 367 m; draft 14.6 m.

Type: Cargo ship. MMSI: 220415000.

Date/timePositionNaut miles runAvg speedWind from/ knotsBaromVisibWave heightAir tempDewpointWater temp
2016-Jul-01 09:33N 32°49' E 035°01'0 0.0
2016-Jul-01 08:33N 32°49' E 035°01'0 0.0
2016-Jul-01 07:33N 32°49' E 035°01'0 0.0
2016-Jul-01 06:33N 32°49' E 035°01'0 0.0
2016-Jul-01 05:33N 32°49' E 035°01'0 0.0
2016-Jul-01 04:33N 32°49' E 035°01'0 0.0
2016-Jul-01 03:33N 32°49' E 035°01'0 0.0
2016-Jul-01 02:33N 32°49' E 035°01'2 2.1
2016-Jul-01 01:33N 32°51' E 035°00'1413.8
2016-Jul-01 00:34N 32°54' E 034°44'2221.7
2016-Jun-30 23:33N 32°57' E 034°18'2221.8
2016-Jun-30 22:33N 32°60' E 033°53'2020.2
2016-Jun-30 21:33N 32°51' E 033°31'2221.7
2016-Jun-30 20:33N 32°32' E 033°18'2321.6
2016-Jun-30 19:29N 32°12' E 033°04'2321.6
2016-Jun-30 18:26N 31°53' E 032°50'2821.0
2016-Jun-30 17:06N 31°36' E 032°24'1018.6
2016-Jun-30 16:33N 31°26' E 032°24'1313.0
2016-Jun-30 15:32N 31°13' E 032°21'2 0.1
2016-Jun-29 14:27N 31°11' E 032°20'11 8.7
2016-Jun-29 13:12N 30°60' E 032°19'  
Track history (hours):
 
Tides and Currents Weather Stations Pressure Air Temp Water Temp Dewpoint Dewpoint Depression Visibility Wind Speed Wind Dir Waves Ship Positions

Gerd Maersk

Last reported at 2016-Jul-01 09:33 UTC. Time now 2016-Jul-01 10:01 UTC.
Position N 32°49' E 035°01'.

Length 367 m; draft 14.6 m.

Type: Cargo ship. MMSI: 220415000.

Date/timePositionNaut miles runAvg speedWind from/ knotsBaromVisibWave heightAir tempDewpointWater temp
2016-Jul-01 09:33N 32°49' E 035°01'0 0.0
2016-Jul-01 08:33N 32°49' E 035°01'0 0.0
2016-Jul-01 07:33N 32°49' E 035°01'0 0.0
2016-Jul-01 06:33N 32°49' E 035°01'0 0.0
2016-Jul-01 05:33N 32°49' E 035°01'0 0.0
2016-Jul-01 04:33N 32°49' E 035°01'0 0.0
2016-Jul-01 03:33N 32°49' E 035°01'0 0.0
2016-Jul-01 02:33N 32°49' E 035°01'2 2.1
2016-Jul-01 01:33N 32°51' E 035°00'1413.8
2016-Jul-01 00:34N 32°54' E 034°44'2221.7
2016-Jun-30 23:33N 32°57' E 034°18'2221.8
2016-Jun-30 22:33N 32°60' E 033°53'2020.2
2016-Jun-30 21:33N 32°51' E 033°31'2221.7
2016-Jun-30 20:33N 32°32' E 033°18'2321.6
2016-Jun-30 19:29N 32°12' E 033°04'2321.6
2016-Jun-30 18:26N 31°53' E 032°50'2821.0
2016-Jun-30 17:06N 31°36' E 032°24'1018.6
2016-Jun-30 16:33N 31°26' E 032°24'1313.0
2016-Jun-30 15:32N 31°13' E 032°21'2 0.1
2016-Jun-29 14:27N 31°11' E 032°20'11 8.7
2016-Jun-29 13:12N 30°60' E 032°19'  

Dump ship's entire track history